sensor_id;sensor_type;location;lat;lon;timestamp;P1;durP1;ratioP1;P2;durP2;ratioP2
19193;SDS011;9729;52.296;13.260;2023-11-21T00:02:21;12.77;;;7.23;;
19193;SDS011;9729;52.296;13.260;2023-11-21T00:04:47;17.27;;;7.33;;
19193;SDS011;9729;52.296;13.260;2023-11-21T00:07:14;18.20;;;8.73;;
19193;SDS011;9729;52.296;13.260;2023-11-21T00:09:40;18.13;;;7.90;;
19193;SDS011;9729;52.296;13.260;2023-11-21T00:12:07;19.90;;;8.10;;
19193;SDS011;9729;52.296;13.260;2023-11-21T00:14:35;18.47;;;8.40;;
19193;SDS011;9729;52.296;13.260;2023-11-21T00:17:01;23.03;;;8.67;;
19193;SDS011;9729;52.296;13.260;2023-11-21T00:19:29;19.47;;;8.47;;
19193;SDS011;9729;52.296;13.260;2023-11-21T00:21:55;12.87;;;7.83;;
19193;SDS011;9729;52.296;13.260;2023-11-21T00:24:23;20.57;;;8.87;;
19193;SDS011;9729;52.296;13.260;2023-11-21T00:26:49;16.80;;;9.00;;
19193;SDS011;9729;52.296;13.260;2023-11-21T00:29:16;16.63;;;8.73;;
19193;SDS011;9729;52.296;13.260;2023-11-21T00:31:43;14.73;;;9.57;;
19193;SDS011;9729;52.296;13.260;2023-11-21T00:34:10;23.03;;;9.77;;
19193;SDS011;9729;52.296;13.260;2023-11-21T00:36:38;9.97;;;7.97;;
19193;SDS011;9729;52.296;13.260;2023-11-21T00:39:05;12.43;;;8.30;;
19193;SDS011;9729;52.296;13.260;2023-11-21T00:41:32;13.17;;;8.17;;
19193;SDS011;9729;52.296;13.260;2023-11-21T00:43:58;16.40;;;7.83;;
19193;SDS011;9729;52.296;13.260;2023-11-21T00:46:25;12.50;;;7.37;;
19193;SDS011;9729;52.296;13.260;2023-11-21T00:48:54;13.13;;;7.60;;
19193;SDS011;9729;52.296;13.260;2023-11-21T00:51:20;9.23;;;5.87;;
19193;SDS011;9729;52.296;13.260;2023-11-21T00:53:48;10.63;;;6.20;;
19193;SDS011;9729;52.296;13.260;2023-11-21T00:56:14;12.80;;;7.23;;
19193;SDS011;9729;52.296;13.260;2023-11-21T00:58:41;9.53;;;6.23;;
19193;SDS011;9729;52.296;13.260;2023-11-21T01:01:08;8.53;;;5.60;;
19193;SDS011;9729;52.296;13.260;2023-11-21T01:03:35;7.50;;;5.10;;
19193;SDS011;9729;52.296;13.260;2023-11-21T01:06:01;6.93;;;5.37;;
19193;SDS011;9729;52.296;13.260;2023-11-21T01:08:28;11.73;;;5.97;;
19193;SDS011;9729;52.296;13.260;2023-11-21T01:10:56;7.30;;;6.60;;
19193;SDS011;9729;52.296;13.260;2023-11-21T01:13:22;7.60;;;6.90;;
19193;SDS011;9729;52.296;13.260;2023-11-21T01:15:48;13.30;;;9.07;;
19193;SDS011;9729;52.296;13.260;2023-11-21T01:18:15;11.83;;;9.27;;
19193;SDS011;9729;52.296;13.260;2023-11-21T01:20:41;13.40;;;9.20;;
19193;SDS011;9729;52.296;13.260;2023-11-21T01:23:09;16.20;;;11.47;;
19193;SDS011;9729;52.296;13.260;2023-11-21T01:25:35;18.27;;;11.57;;
19193;SDS011;9729;52.296;13.260;2023-11-21T01:28:03;23.60;;;14.17;;
19193;SDS011;9729;52.296;13.260;2023-11-21T01:30:29;19.70;;;13.30;;
19193;SDS011;9729;52.296;13.260;2023-11-21T01:32:57;19.00;;;14.07;;
19193;SDS011;9729;52.296;13.260;2023-11-21T01:35:23;19.07;;;12.50;;
19193;SDS011;9729;52.296;13.260;2023-11-21T01:37:50;21.17;;;13.13;;
19193;SDS011;9729;52.296;13.260;2023-11-21T01:40:16;18.73;;;13.27;;
19193;SDS011;9729;52.296;13.260;2023-11-21T01:42:42;24.27;;;15.23;;
19193;SDS011;9729;52.296;13.260;2023-11-21T01:45:11;22.13;;;13.83;;
19193;SDS011;9729;52.296;13.260;2023-11-21T01:47:37;28.20;;;15.00;;
19193;SDS011;9729;52.296;13.260;2023-11-21T01:50:05;27.93;;;16.73;;
19193;SDS011;9729;52.296;13.260;2023-11-21T01:52:32;29.10;;;17.23;;
19193;SDS011;9729;52.296;13.260;2023-11-21T01:54:59;29.13;;;16.37;;
19193;SDS011;9729;52.296;13.260;2023-11-21T01:57:26;35.63;;;18.83;;
19193;SDS011;9729;52.296;13.260;2023-11-21T01:59:52;33.90;;;19.13;;
19193;SDS011;9729;52.296;13.260;2023-11-21T02:02:21;30.87;;;18.50;;
19193;SDS011;9729;52.296;13.260;2023-11-21T02:04:47;36.47;;;21.23;;
19193;SDS011;9729;52.296;13.260;2023-11-21T02:07:14;37.83;;;20.40;;
19193;SDS011;9729;52.296;13.260;2023-11-21T02:09:40;38.53;;;21.10;;
19193;SDS011;9729;52.296;13.260;2023-11-21T02:12:07;41.37;;;20.67;;
19193;SDS011;9729;52.296;13.260;2023-11-21T02:14:35;41.23;;;18.63;;
19193;SDS011;9729;52.296;13.260;2023-11-21T02:17:02;39.77;;;20.43;;
19193;SDS011;9729;52.296;13.260;2023-11-21T02:19:30;36.77;;;19.83;;
19193;SDS011;9729;52.296;13.260;2023-11-21T02:21:57;38.80;;;19.23;;
19193;SDS011;9729;52.296;13.260;2023-11-21T02:24:29;40.07;;;18.17;;
19193;SDS011;9729;52.296;13.260;2023-11-21T02:26:56;37.60;;;19.97;;
19193;SDS011;9729;52.296;13.260;2023-11-21T02:29:22;39.23;;;18.60;;
19193;SDS011;9729;52.296;13.260;2023-11-21T02:31:53;56.03;;;21.30;;
19193;SDS011;9729;52.296;13.260;2023-11-21T02:34:20;56.13;;;22.83;;
19193;SDS011;9729;52.296;13.260;2023-11-21T02:36:46;55.10;;;24.33;;
19193;SDS011;9729;52.296;13.260;2023-11-21T02:39:14;57.20;;;26.03;;
19193;SDS011;9729;52.296;13.260;2023-11-21T02:41:42;63.27;;;26.57;;
19193;SDS011;9729;52.296;13.260;2023-11-21T02:44:09;51.43;;;25.77;;
19193;SDS011;9729;52.296;13.260;2023-11-21T02:46:36;61.97;;;25.10;;
19193;SDS011;9729;52.296;13.260;2023-11-21T02:49:04;63.43;;;23.63;;
19193;SDS011;9729;52.296;13.260;2023-11-21T02:51:31;64.07;;;24.00;;
19193;SDS011;9729;52.296;13.260;2023-11-21T02:53:57;68.60;;;24.23;;
19193;SDS011;9729;52.296;13.260;2023-11-21T02:56:25;66.57;;;25.07;;
19193;SDS011;9729;52.296;13.260;2023-11-21T02:58:55;59.57;;;24.30;;
19193;SDS011;9729;52.296;13.260;2023-11-21T03:01:21;62.93;;;25.73;;
19193;SDS011;9729;52.296;13.260;2023-11-21T03:03:48;66.33;;;25.73;;
19193;SDS011;9729;52.296;13.260;2023-11-21T03:06:16;55.73;;;23.90;;
19193;SDS011;9729;52.296;13.260;2023-11-21T03:08:42;62.80;;;24.87;;
19193;SDS011;9729;52.296;13.260;2023-11-21T03:11:08;59.77;;;23.33;;
19193;SDS011;9729;52.296;13.260;2023-11-21T03:13:35;56.87;;;23.23;;
19193;SDS011;9729;52.296;13.260;2023-11-21T03:16:02;48.73;;;22.90;;
19193;SDS011;9729;52.296;13.260;2023-11-21T03:18:29;51.37;;;20.47;;
19193;SDS011;9729;52.296;13.260;2023-11-21T03:20:56;55.23;;;22.80;;
19193;SDS011;9729;52.296;13.260;2023-11-21T03:23:22;51.70;;;20.30;;
19193;SDS011;9729;52.296;13.260;2023-11-21T03:25:49;52.50;;;19.77;;
19193;SDS011;9729;52.296;13.260;2023-11-21T03:28:15;50.67;;;20.97;;
19193;SDS011;9729;52.296;13.260;2023-11-21T03:30:41;50.27;;;20.33;;
19193;SDS011;9729;52.296;13.260;2023-11-21T03:33:09;49.50;;;19.73;;
19193;SDS011;9729;52.296;13.260;2023-11-21T03:35:35;54.17;;;19.27;;
19193;SDS011;9729;52.296;13.260;2023-11-21T03:38:02;52.50;;;20.20;;
19193;SDS011;9729;52.296;13.260;2023-11-21T03:40:29;55.80;;;21.33;;
19193;SDS011;9729;52.296;13.260;2023-11-21T03:42:56;49.23;;;21.43;;
19193;SDS011;9729;52.296;13.260;2023-11-21T03:45:23;64.50;;;22.33;;
19193;SDS011;9729;52.296;13.260;2023-11-21T03:47:49;56.87;;;22.33;;
19193;SDS011;9729;52.296;13.260;2023-11-21T03:50:17;47.80;;;20.70;;
19193;SDS011;9729;52.296;13.260;2023-11-21T03:52:43;51.23;;;20.67;;
19193;SDS011;9729;52.296;13.260;2023-11-21T03:55:10;56.73;;;21.53;;
19193;SDS011;9729;52.296;13.260;2023-11-21T03:57:36;51.53;;;20.43;;
19193;SDS011;9729;52.296;13.260;2023-11-21T04:00:03;49.37;;;21.27;;
19193;SDS011;9729;52.296;13.260;2023-11-21T04:02:33;48.00;;;20.03;;
19193;SDS011;9729;52.296;13.260;2023-11-21T04:05:00;59.33;;;20.80;;
19193;SDS011;9729;52.296;13.260;2023-11-21T04:07:27;62.37;;;23.80;;
19193;SDS011;9729;52.296;13.260;2023-11-21T04:09:54;56.17;;;22.70;;
19193;SDS011;9729;52.296;13.260;2023-11-21T04:12:20;50.60;;;21.23;;
19193;SDS011;9729;52.296;13.260;2023-11-21T04:14:46;53.83;;;21.30;;
19193;SDS011;9729;52.296;13.260;2023-11-21T04:17:13;49.00;;;20.73;;
19193;SDS011;9729;52.296;13.260;2023-11-21T04:19:39;49.20;;;20.90;;
19193;SDS011;9729;52.296;13.260;2023-11-21T04:22:05;46.83;;;19.97;;
19193;SDS011;9729;52.296;13.260;2023-11-21T04:24:33;41.47;;;20.27;;
19193;SDS011;9729;52.296;13.260;2023-11-21T04:26:59;39.10;;;19.93;;
19193;SDS011;9729;52.296;13.260;2023-11-21T04:29:26;41.37;;;21.03;;
19193;SDS011;9729;52.296;13.260;2023-11-21T04:31:52;31.30;;;18.50;;
19193;SDS011;9729;52.296;13.260;2023-11-21T04:34:18;35.57;;;20.17;;
19193;SDS011;9729;52.296;13.260;2023-11-21T04:36:46;40.07;;;20.23;;
19193;SDS011;9729;52.296;13.260;2023-11-21T04:39:12;29.43;;;17.63;;
19193;SDS011;9729;52.296;13.260;2023-11-21T04:41:40;32.83;;;18.30;;
19193;SDS011;9729;52.296;13.260;2023-11-21T04:44:06;31.73;;;20.27;;
19193;SDS011;9729;52.296;13.260;2023-11-21T04:46:32;33.50;;;19.07;;
19193;SDS011;9729;52.296;13.260;2023-11-21T04:48:59;36.90;;;18.80;;
19193;SDS011;9729;52.296;13.260;2023-11-21T04:51:25;30.93;;;18.77;;
19193;SDS011;9729;52.296;13.260;2023-11-21T04:53:52;29.47;;;17.73;;
19193;SDS011;9729;52.296;13.260;2023-11-21T04:56:18;26.97;;;17.40;;
19193;SDS011;9729;52.296;13.260;2023-11-21T04:58:46;30.83;;;19.97;;
19193;SDS011;9729;52.296;13.260;2023-11-21T05:01:12;28.37;;;18.07;;
19193;SDS011;9729;52.296;13.260;2023-11-21T05:03:38;25.90;;;17.63;;
19193;SDS011;9729;52.296;13.260;2023-11-21T05:06:05;28.83;;;17.43;;
19193;SDS011;9729;52.296;13.260;2023-11-21T05:08:32;27.67;;;18.50;;
19193;SDS011;9729;52.296;13.260;2023-11-21T05:10:58;32.67;;;18.33;;
19193;SDS011;9729;52.296;13.260;2023-11-21T05:13:25;29.83;;;17.67;;
19193;SDS011;9729;52.296;13.260;2023-11-21T05:15:53;28.37;;;18.20;;
19193;SDS011;9729;52.296;13.260;2023-11-21T05:18:20;28.53;;;17.93;;
19193;SDS011;9729;52.296;13.260;2023-11-21T05:20:46;28.40;;;17.70;;
19193;SDS011;9729;52.296;13.260;2023-11-21T05:23:13;28.03;;;17.67;;
19193;SDS011;9729;52.296;13.260;2023-11-21T05:25:40;29.80;;;17.17;;
19193;SDS011;9729;52.296;13.260;2023-11-21T05:28:06;28.20;;;15.87;;
19193;SDS011;9729;52.296;13.260;2023-11-21T05:30:32;28.37;;;17.07;;
19193;SDS011;9729;52.296;13.260;2023-11-21T05:33:00;30.10;;;17.33;;
19193;SDS011;9729;52.296;13.260;2023-11-21T05:35:26;26.37;;;16.73;;
19193;SDS011;9729;52.296;13.260;2023-11-21T05:37:53;23.57;;;16.37;;
19193;SDS011;9729;52.296;13.260;2023-11-21T05:40:19;25.00;;;16.87;;
19193;SDS011;9729;52.296;13.260;2023-11-21T05:42:47;27.83;;;16.13;;
19193;SDS011;9729;52.296;13.260;2023-11-21T05:45:13;26.13;;;15.53;;
19193;SDS011;9729;52.296;13.260;2023-11-21T05:47:41;26.20;;;15.13;;
19193;SDS011;9729;52.296;13.260;2023-11-21T05:50:09;27.87;;;16.83;;
19193;SDS011;9729;52.296;13.260;2023-11-21T05:52:39;25.20;;;16.13;;
19193;SDS011;9729;52.296;13.260;2023-11-21T05:55:06;25.53;;;16.57;;
19193;SDS011;9729;52.296;13.260;2023-11-21T05:57:33;24.83;;;14.93;;
19193;SDS011;9729;52.296;13.260;2023-11-21T06:00:01;29.30;;;16.53;;
19193;SDS011;9729;52.296;13.260;2023-11-21T06:02:36;22.53;;;14.77;;
19193;SDS011;9729;52.296;13.260;2023-11-21T06:05:02;26.77;;;17.00;;
19193;SDS011;9729;52.296;13.260;2023-11-21T06:07:31;23.90;;;16.57;;
19193;SDS011;9729;52.296;13.260;2023-11-21T06:09:57;32.13;;;16.67;;
19193;SDS011;9729;52.296;13.260;2023-11-21T06:12:24;22.30;;;15.60;;
19193;SDS011;9729;52.296;13.260;2023-11-21T06:14:50;24.40;;;16.03;;
19193;SDS011;9729;52.296;13.260;2023-11-21T06:17:17;22.47;;;15.43;;
19193;SDS011;9729;52.296;13.260;2023-11-21T06:19:43;23.07;;;14.67;;
19193;SDS011;9729;52.296;13.260;2023-11-21T06:22:10;19.93;;;14.60;;
19193;SDS011;9729;52.296;13.260;2023-11-21T06:24:38;21.77;;;13.13;;
19193;SDS011;9729;52.296;13.260;2023-11-21T06:27:07;19.20;;;12.60;;
19193;SDS011;9729;52.296;13.260;2023-11-21T06:29:33;22.33;;;14.03;;
19193;SDS011;9729;52.296;13.260;2023-11-21T06:32:00;17.23;;;11.13;;
19193;SDS011;9729;52.296;13.260;2023-11-21T06:34:30;16.90;;;12.60;;
19193;SDS011;9729;52.296;13.260;2023-11-21T06:36:56;16.47;;;11.90;;
19193;SDS011;9729;52.296;13.260;2023-11-21T06:39:22;18.30;;;12.80;;
19193;SDS011;9729;52.296;13.260;2023-11-21T06:41:54;17.77;;;12.27;;
19193;SDS011;9729;52.296;13.260;2023-11-21T06:44:21;20.00;;;13.23;;
19193;SDS011;9729;52.296;13.260;2023-11-21T06:46:47;19.23;;;14.50;;
19193;SDS011;9729;52.296;13.260;2023-11-21T06:49:13;18.03;;;12.57;;
19193;SDS011;9729;52.296;13.260;2023-11-21T06:51:41;20.13;;;13.37;;
19193;SDS011;9729;52.296;13.260;2023-11-21T06:54:07;21.83;;;12.90;;
19193;SDS011;9729;52.296;13.260;2023-11-21T06:56:34;16.97;;;11.73;;
19193;SDS011;9729;52.296;13.260;2023-11-21T06:59:02;17.80;;;12.00;;
19193;SDS011;9729;52.296;13.260;2023-11-21T07:01:30;18.73;;;12.30;;
19193;SDS011;9729;52.296;13.260;2023-11-21T07:03:59;19.00;;;12.83;;
19193;SDS011;9729;52.296;13.260;2023-11-21T07:06:25;23.07;;;11.83;;
19193;SDS011;9729;52.296;13.260;2023-11-21T07:08:52;19.13;;;12.53;;
19193;SDS011;9729;52.296;13.260;2023-11-21T07:11:18;16.00;;;11.13;;
19193;SDS011;9729;52.296;13.260;2023-11-21T07:13:44;16.07;;;11.23;;
19193;SDS011;9729;52.296;13.260;2023-11-21T07:16:12;15.13;;;11.00;;
19193;SDS011;9729;52.296;13.260;2023-11-21T07:18:40;13.23;;;10.30;;
19193;SDS011;9729;52.296;13.260;2023-11-21T07:21:06;17.20;;;10.17;;
19193;SDS011;9729;52.296;13.260;2023-11-21T07:23:33;13.77;;;10.97;;
19193;SDS011;9729;52.296;13.260;2023-11-21T07:25:59;13.33;;;10.50;;
19193;SDS011;9729;52.296;13.260;2023-11-21T07:28:26;14.73;;;11.17;;
19193;SDS011;9729;52.296;13.260;2023-11-21T07:30:52;15.23;;;11.10;;
19193;SDS011;9729;52.296;13.260;2023-11-21T07:33:20;13.87;;;10.27;;
19193;SDS011;9729;52.296;13.260;2023-11-21T07:35:46;12.57;;;9.93;;
19193;SDS011;9729;52.296;13.260;2023-11-21T07:38:13;14.80;;;10.97;;
19193;SDS011;9729;52.296;13.260;2023-11-21T07:40:39;13.07;;;9.83;;
19193;SDS011;9729;52.296;13.260;2023-11-21T07:43:05;15.67;;;10.73;;
19193;SDS011;9729;52.296;13.260;2023-11-21T07:45:32;13.90;;;10.80;;
19193;SDS011;9729;52.296;13.260;2023-11-21T07:47:58;12.07;;;9.70;;
19193;SDS011;9729;52.296;13.260;2023-11-21T07:50:27;13.63;;;10.63;;
19193;SDS011;9729;52.296;13.260;2023-11-21T07:52:53;15.43;;;10.10;;
19193;SDS011;9729;52.296;13.260;2023-11-21T07:55:20;13.63;;;10.60;;
19193;SDS011;9729;52.296;13.260;2023-11-21T07:57:46;18.83;;;11.27;;
19193;SDS011;9729;52.296;13.260;2023-11-21T08:00:12;14.53;;;9.33;;
19193;SDS011;9729;52.296;13.260;2023-11-21T08:02:40;14.83;;;11.13;;
19193;SDS011;9729;52.296;13.260;2023-11-21T08:05:07;12.50;;;9.67;;
19193;SDS011;9729;52.296;13.260;2023-11-21T08:07:35;14.30;;;9.43;;
19193;SDS011;9729;52.296;13.260;2023-11-21T08:10:01;13.67;;;9.50;;
19193;SDS011;9729;52.296;13.260;2023-11-21T08:12:29;13.40;;;9.80;;
19193;SDS011;9729;52.296;13.260;2023-11-21T08:14:56;12.47;;;9.70;;
19193;SDS011;9729;52.296;13.260;2023-11-21T08:17:22;15.00;;;9.30;;
19193;SDS011;9729;52.296;13.260;2023-11-21T08:19:49;11.10;;;9.20;;
19193;SDS011;9729;52.296;13.260;2023-11-21T08:22:16;13.63;;;9.60;;
19193;SDS011;9729;52.296;13.260;2023-11-21T08:24:44;10.83;;;9.07;;
19193;SDS011;9729;52.296;13.260;2023-11-21T08:27:11;11.60;;;9.10;;
19193;SDS011;9729;52.296;13.260;2023-11-21T08:29:40;9.47;;;7.77;;
19193;SDS011;9729;52.296;13.260;2023-11-21T08:32:07;9.87;;;8.50;;
19193;SDS011;9729;52.296;13.260;2023-11-21T08:34:33;11.53;;;8.77;;
19193;SDS011;9729;52.296;13.260;2023-11-21T08:36:59;9.67;;;7.53;;
19193;SDS011;9729;52.296;13.260;2023-11-21T08:39:26;11.37;;;9.30;;
19193;SDS011;9729;52.296;13.260;2023-11-21T08:41:53;10.67;;;8.83;;
19193;SDS011;9729;52.296;13.260;2023-11-21T08:44:19;14.13;;;9.57;;
19193;SDS011;9729;52.296;13.260;2023-11-21T08:46:46;8.67;;;7.37;;
19193;SDS011;9729;52.296;13.260;2023-11-21T08:49:13;11.23;;;8.40;;
19193;SDS011;9729;52.296;13.260;2023-11-21T08:51:40;10.77;;;8.93;;
19193;SDS011;9729;52.296;13.260;2023-11-21T08:54:06;11.07;;;8.67;;
19193;SDS011;9729;52.296;13.260;2023-11-21T08:56:33;10.63;;;8.67;;
19193;SDS011;9729;52.296;13.260;2023-11-21T08:59:01;13.53;;;8.73;;
19193;SDS011;9729;52.296;13.260;2023-11-21T09:01:28;11.73;;;8.67;;
19193;SDS011;9729;52.296;13.260;2023-11-21T09:03:56;13.57;;;8.20;;
19193;SDS011;9729;52.296;13.260;2023-11-21T09:06:22;8.33;;;7.10;;
19193;SDS011;9729;52.296;13.260;2023-11-21T09:08:49;12.63;;;8.43;;
19193;SDS011;9729;52.296;13.260;2023-11-21T09:11:15;14.90;;;8.33;;
19193;SDS011;9729;52.296;13.260;2023-11-21T09:13:41;12.33;;;8.07;;
19193;SDS011;9729;52.296;13.260;2023-11-21T09:16:09;14.07;;;8.17;;
19193;SDS011;9729;52.296;13.260;2023-11-21T09:18:35;16.90;;;8.80;;
19193;SDS011;9729;52.296;13.260;2023-11-21T09:21:02;12.47;;;7.43;;
19193;SDS011;9729;52.296;13.260;2023-11-21T09:23:29;19.50;;;9.87;;
19193;SDS011;9729;52.296;13.260;2023-11-21T09:25:55;13.73;;;8.80;;
19193;SDS011;9729;52.296;13.260;2023-11-21T09:28:24;14.03;;;9.07;;
19193;SDS011;9729;52.296;13.260;2023-11-21T09:30:52;12.90;;;8.77;;
19193;SDS011;9729;52.296;13.260;2023-11-21T09:33:19;17.97;;;9.00;;
19193;SDS011;9729;52.296;13.260;2023-11-21T09:35:47;13.43;;;8.90;;
19193;SDS011;9729;52.296;13.260;2023-11-21T09:38:14;14.17;;;9.40;;
19193;SDS011;9729;52.296;13.260;2023-11-21T09:40:40;14.17;;;8.17;;
19193;SDS011;9729;52.296;13.260;2023-11-21T09:43:08;14.87;;;9.10;;
19193;SDS011;9729;52.296;13.260;2023-11-21T09:45:41;19.33;;;9.10;;
19193;SDS011;9729;52.296;13.260;2023-11-21T09:48:11;14.27;;;9.17;;
19193;SDS011;9729;52.296;13.260;2023-11-21T09:50:39;14.10;;;8.03;;
19193;SDS011;9729;52.296;13.260;2023-11-21T09:53:09;14.70;;;8.73;;
19193;SDS011;9729;52.296;13.260;2023-11-21T09:55:40;19.17;;;9.53;;
19193;SDS011;9729;52.296;13.260;2023-11-21T09:58:09;16.63;;;9.20;;
19193;SDS011;9729;52.296;13.260;2023-11-21T10:00:37;13.53;;;8.50;;
19193;SDS011;9729;52.296;13.260;2023-11-21T10:03:05;17.53;;;7.87;;
19193;SDS011;9729;52.296;13.260;2023-11-21T10:05:32;15.40;;;8.30;;
19193;SDS011;9729;52.296;13.260;2023-11-21T10:08:00;21.00;;;9.53;;
19193;SDS011;9729;52.296;13.260;2023-11-21T10:10:27;19.03;;;10.30;;
19193;SDS011;9729;52.296;13.260;2023-11-21T10:12:54;20.23;;;9.13;;
19193;SDS011;9729;52.296;13.260;2023-11-21T10:15:22;18.60;;;9.03;;
19193;SDS011;9729;52.296;13.260;2023-11-21T10:17:50;14.93;;;8.33;;
19193;SDS011;9729;52.296;13.260;2023-11-21T10:20:18;14.63;;;9.00;;
19193;SDS011;9729;52.296;13.260;2023-11-21T10:22:45;20.53;;;8.40;;
19193;SDS011;9729;52.296;13.260;2023-11-21T10:25:13;13.97;;;7.87;;
19193;SDS011;9729;52.296;13.260;2023-11-21T10:27:40;14.83;;;8.33;;
19193;SDS011;9729;52.296;13.260;2023-11-21T10:30:08;15.47;;;8.27;;
19193;SDS011;9729;52.296;13.260;2023-11-21T10:32:37;12.57;;;8.00;;
19193;SDS011;9729;52.296;13.260;2023-11-21T10:35:03;18.77;;;8.73;;
19193;SDS011;9729;52.296;13.260;2023-11-21T10:37:35;16.57;;;8.93;;
19193;SDS011;9729;52.296;13.260;2023-11-21T10:40:01;17.60;;;8.47;;
19193;SDS011;9729;52.296;13.260;2023-11-21T10:42:31;35.23;;;14.80;;
19193;SDS011;9729;52.296;13.260;2023-11-21T10:44:58;16.00;;;8.47;;
19193;SDS011;9729;52.296;13.260;2023-11-21T10:47:25;11.53;;;8.00;;
19193;SDS011;9729;52.296;13.260;2023-11-21T10:49:52;14.93;;;7.73;;
19193;SDS011;9729;52.296;13.260;2023-11-21T10:52:18;17.87;;;9.13;;
19193;SDS011;9729;52.296;13.260;2023-11-21T10:54:45;15.73;;;8.80;;
19193;SDS011;9729;52.296;13.260;2023-11-21T10:57:12;12.87;;;8.03;;
19193;SDS011;9729;52.296;13.260;2023-11-21T10:59:41;54.43;;;17.80;;
19193;SDS011;9729;52.296;13.260;2023-11-21T11:02:10;12.87;;;7.80;;
19193;SDS011;9729;52.296;13.260;2023-11-21T11:04:45;16.03;;;8.43;;
19193;SDS011;9729;52.296;13.260;2023-11-21T11:07:13;8.17;;;6.87;;
19193;SDS011;9729;52.296;13.260;2023-11-21T11:09:41;18.73;;;9.87;;
19193;SDS011;9729;52.296;13.260;2023-11-21T11:12:09;25.57;;;9.40;;
19193;SDS011;9729;52.296;13.260;2023-11-21T11:14:35;10.47;;;7.23;;
19193;SDS011;9729;52.296;13.260;2023-11-21T11:17:04;8.70;;;7.00;;
19193;SDS011;9729;52.296;13.260;2023-11-21T11:19:30;11.87;;;7.00;;
19193;SDS011;9729;52.296;13.260;2023-11-21T11:21:59;10.07;;;6.70;;
19193;SDS011;9729;52.296;13.260;2023-11-21T11:24:43;11.87;;;6.47;;
19193;SDS011;9729;52.296;13.260;2023-11-21T11:27:15;7.93;;;6.40;;
19193;SDS011;9729;52.296;13.260;2023-11-21T11:29:49;8.73;;;5.30;;
19193;SDS011;9729;52.296;13.260;2023-11-21T11:32:27;5.20;;;4.63;;
19193;SDS011;9729;52.296;13.260;2023-11-21T11:35:01;12.60;;;7.10;;
19193;SDS011;9729;52.296;13.260;2023-11-21T11:37:30;10.17;;;7.00;;
19193;SDS011;9729;52.296;13.260;2023-11-21T11:39:57;17.97;;;8.50;;
19193;SDS011;9729;52.296;13.260;2023-11-21T11:42:23;28.83;;;12.23;;
19193;SDS011;9729;52.296;13.260;2023-11-21T11:44:53;8.23;;;6.23;;
19193;SDS011;9729;52.296;13.260;2023-11-21T11:47:21;10.23;;;7.17;;
19193;SDS011;9729;52.296;13.260;2023-11-21T11:49:57;6.33;;;5.80;;
19193;SDS011;9729;52.296;13.260;2023-11-21T11:52:35;9.90;;;6.27;;
19193;SDS011;9729;52.296;13.260;2023-11-21T11:55:06;7.67;;;6.00;;
19193;SDS011;9729;52.296;13.260;2023-11-21T11:57:35;7.63;;;6.37;;
19193;SDS011;9729;52.296;13.260;2023-11-21T12:00:11;6.90;;;6.03;;
19193;SDS011;9729;52.296;13.260;2023-11-21T12:02:41;9.13;;;6.13;;
19193;SDS011;9729;52.296;13.260;2023-11-21T12:05:10;7.47;;;5.30;;
19193;SDS011;9729;52.296;13.260;2023-11-21T12:07:48;7.57;;;6.77;;
19193;SDS011;9729;52.296;13.260;2023-11-21T12:10:18;5.90;;;5.10;;
19193;SDS011;9729;52.296;13.260;2023-11-21T12:12:45;7.10;;;6.50;;
19193;SDS011;9729;52.296;13.260;2023-11-21T12:15:12;9.00;;;6.77;;
19193;SDS011;9729;52.296;13.260;2023-11-21T12:17:39;5.97;;;5.43;;
19193;SDS011;9729;52.296;13.260;2023-11-21T12:20:07;5.77;;;5.20;;
19193;SDS011;9729;52.296;13.260;2023-11-21T12:22:42;7.37;;;5.70;;
19193;SDS011;9729;52.296;13.260;2023-11-21T12:25:09;6.37;;;5.60;;
19193;SDS011;9729;52.296;13.260;2023-11-21T12:27:40;5.60;;;5.20;;
19193;SDS011;9729;52.296;13.260;2023-11-21T12:30:07;6.00;;;5.40;;
19193;SDS011;9729;52.296;13.260;2023-11-21T12:32:38;6.10;;;5.50;;
19193;SDS011;9729;52.296;13.260;2023-11-21T12:35:05;8.43;;;6.60;;
19193;SDS011;9729;52.296;13.260;2023-11-21T12:37:32;8.00;;;6.10;;
19193;SDS011;9729;52.296;13.260;2023-11-21T12:40:00;6.90;;;6.30;;
19193;SDS011;9729;52.296;13.260;2023-11-21T12:42:26;7.10;;;6.43;;
19193;SDS011;9729;52.296;13.260;2023-11-21T12:45:08;8.23;;;6.63;;
19193;SDS011;9729;52.296;13.260;2023-11-21T12:47:40;5.90;;;5.40;;
19193;SDS011;9729;52.296;13.260;2023-11-21T12:50:07;8.63;;;6.83;;
19193;SDS011;9729;52.296;13.260;2023-11-21T12:52:39;7.90;;;6.87;;
19193;SDS011;9729;52.296;13.260;2023-11-21T12:55:08;6.67;;;6.00;;
19193;SDS011;9729;52.296;13.260;2023-11-21T12:57:34;6.37;;;5.67;;
19193;SDS011;9729;52.296;13.260;2023-11-21T13:00:03;7.87;;;5.90;;
19193;SDS011;9729;52.296;13.260;2023-11-21T13:02:37;10.63;;;5.57;;
19193;SDS011;9729;52.296;13.260;2023-11-21T13:05:07;11.07;;;7.70;;
19193;SDS011;9729;52.296;13.260;2023-11-21T13:07:43;7.30;;;6.70;;
19193;SDS011;9729;52.296;13.260;2023-11-21T13:10:13;6.60;;;6.00;;
19193;SDS011;9729;52.296;13.260;2023-11-21T13:12:42;7.23;;;6.53;;
19193;SDS011;9729;52.296;13.260;2023-11-21T13:15:09;8.00;;;7.20;;
19193;SDS011;9729;52.296;13.260;2023-11-21T13:17:36;7.97;;;6.70;;
19193;SDS011;9729;52.296;13.260;2023-11-21T13:20:03;7.40;;;6.70;;
19193;SDS011;9729;52.296;13.260;2023-11-21T13:22:33;9.30;;;6.73;;
19193;SDS011;9729;52.296;13.260;2023-11-21T13:25:00;7.77;;;6.67;;
19193;SDS011;9729;52.296;13.260;2023-11-21T13:27:33;10.43;;;7.70;;
19193;SDS011;9729;52.296;13.260;2023-11-21T13:30:02;7.67;;;6.87;;
19193;SDS011;9729;52.296;13.260;2023-11-21T13:32:28;6.93;;;6.37;;
19193;SDS011;9729;52.296;13.260;2023-11-21T13:34:56;7.53;;;5.93;;
19193;SDS011;9729;52.296;13.260;2023-11-21T13:37:24;7.90;;;6.47;;
19193;SDS011;9729;52.296;13.260;2023-11-21T13:39:53;6.90;;;6.27;;
19193;SDS011;9729;52.296;13.260;2023-11-21T13:42:21;6.70;;;6.10;;
19193;SDS011;9729;52.296;13.260;2023-11-21T13:44:55;9.30;;;7.13;;
19193;SDS011;9729;52.296;13.260;2023-11-21T13:47:22;9.67;;;7.90;;
19193;SDS011;9729;52.296;13.260;2023-11-21T13:49:50;7.13;;;6.37;;
19193;SDS011;9729;52.296;13.260;2023-11-21T13:52:17;6.60;;;5.93;;
19193;SDS011;9729;52.296;13.260;2023-11-21T13:54:47;6.80;;;6.10;;
19193;SDS011;9729;52.296;13.260;2023-11-21T13:57:13;6.40;;;5.73;;
19193;SDS011;9729;52.296;13.260;2023-11-21T13:59:41;6.60;;;6.00;;
19193;SDS011;9729;52.296;13.260;2023-11-21T14:02:10;6.00;;;5.40;;
19193;SDS011;9729;52.296;13.260;2023-11-21T14:04:42;8.10;;;6.53;;
19193;SDS011;9729;52.296;13.260;2023-11-21T14:07:20;8.53;;;6.87;;
19193;SDS011;9729;52.296;13.260;2023-11-21T14:09:52;7.27;;;6.57;;
19193;SDS011;9729;52.296;13.260;2023-11-21T14:12:19;6.93;;;6.23;;
19193;SDS011;9729;52.296;13.260;2023-11-21T14:14:46;9.00;;;7.37;;
19193;SDS011;9729;52.296;13.260;2023-11-21T14:17:15;7.63;;;6.93;;
19193;SDS011;9729;52.296;13.260;2023-11-21T14:19:41;12.03;;;8.10;;
19193;SDS011;9729;52.296;13.260;2023-11-21T14:22:08;8.60;;;7.57;;
19193;SDS011;9729;52.296;13.260;2023-11-21T14:24:35;11.07;;;9.40;;
19193;SDS011;9729;52.296;13.260;2023-11-21T14:27:01;9.97;;;6.90;;
19193;SDS011;9729;52.296;13.260;2023-11-21T14:29:28;11.33;;;9.03;;
19193;SDS011;9729;52.296;13.260;2023-11-21T14:31:56;13.97;;;9.47;;
19193;SDS011;9729;52.296;13.260;2023-11-21T14:34:24;10.60;;;9.37;;